createdAt,value
2019-02-10T00:00:24.162Z,15.47
2019-02-10T00:02:32.332Z,21.10
2019-02-10T00:04:41.821Z,13.67
2019-02-10T00:06:48.520Z,13.73
2019-02-10T00:08:57.087Z,12.70
2019-02-10T00:11:04.090Z,15.27
2019-02-10T00:13:31.645Z,18.00
2019-02-10T00:15:38.400Z,13.47
2019-02-10T00:17:45.121Z,16.73
2019-02-10T00:19:53.571Z,14.30
2019-02-10T00:22:01.650Z,16.60
2019-02-10T00:24:09.811Z,15.90
2019-02-10T00:26:16.520Z,14.20
2019-02-10T00:28:23.410Z,20.03
2019-02-10T00:30:30.288Z,14.03
2019-02-10T00:32:38.939Z,14.90
2019-02-10T00:34:46.189Z,12.83
2019-02-10T00:36:52.937Z,11.57
2019-02-10T00:38:59.419Z,16.23
2019-02-10T00:41:06.305Z,13.50
2019-02-10T00:43:14.799Z,14.30
2019-02-10T00:45:22.755Z,14.63
2019-02-10T00:47:29.585Z,14.67
2019-02-10T00:49:36.394Z,11.73
2019-02-10T00:51:43.003Z,16.57
2019-02-10T00:53:51.244Z,17.80
2019-02-10T00:55:57.935Z,15.10
2019-02-10T00:58:04.911Z,10.93
2019-02-10T01:00:12.485Z,12.13
2019-02-10T01:02:19.452Z,16.93
2019-02-10T01:04:26.416Z,13.80
2019-02-10T01:06:41.234Z,14.83
2019-02-10T01:08:42.792Z,13.47
2019-02-10T01:10:49.925Z,13.17
2019-02-10T01:12:58.425Z,13.80
2019-02-10T01:15:06.225Z,12.70
2019-02-10T01:17:12.931Z,9.07
2019-02-10T01:19:20.140Z,12.83
2019-02-10T01:21:27.045Z,14.97
2019-02-10T01:23:35.294Z,14.93
2019-02-10T01:25:42.445Z,12.07
2019-02-10T01:27:48.975Z,14.27
2019-02-10T01:29:56.295Z,13.80
2019-02-10T01:32:02.946Z,11.93
2019-02-10T01:34:09.804Z,16.30
2019-02-10T01:36:17.812Z,13.77
2019-02-10T01:38:24.494Z,9.97
2019-02-10T01:40:31.283Z,9.37
2019-02-10T01:42:39.891Z,11.00
2019-02-10T01:44:46.943Z,12.00
2019-02-10T01:46:53.612Z,16.70
2019-02-10T01:49:00.293Z,15.10
2019-02-10T01:51:06.946Z,7.30
2019-02-10T01:53:13.673Z,13.23
2019-02-10T01:55:20.405Z,8.90
2019-02-10T01:57:27.131Z,8.50
2019-02-10T01:59:35.255Z,11.60
2019-02-10T02:01:42.184Z,9.23
2019-02-10T02:03:48.941Z,8.87
2019-02-10T02:05:55.688Z,11.53
2019-02-10T02:08:02.268Z,11.90
2019-02-10T02:10:12.344Z,13.80
2019-02-10T02:12:20.441Z,11.17
2019-02-10T02:14:26.959Z,13.43
2019-02-10T02:16:33.578Z,13.73
2019-02-10T02:18:41.182Z,13.90
2019-02-10T02:20:49.528Z,12.00
2019-02-10T02:22:56.399Z,12.97
2019-02-10T02:25:06.222Z,13.50
2019-02-10T02:27:14.039Z,9.50
2019-02-10T02:29:21.101Z,9.83
2019-02-10T02:31:28.168Z,11.03
2019-02-10T02:33:36.164Z,11.90
2019-02-10T02:35:44.417Z,12.37
2019-02-10T02:37:50.929Z,11.60
2019-02-10T02:39:57.960Z,11.60
2019-02-10T02:42:04.438Z,13.77
2019-02-10T02:44:11.291Z,9.33
2019-02-10T02:46:18.576Z,13.13
2019-02-10T02:48:25.294Z,14.27
2019-02-10T02:50:32.062Z,13.43
2019-02-10T02:52:39.956Z,17.27
2019-02-10T02:54:46.448Z,14.87
2019-02-10T02:56:53.476Z,9.43
2019-02-10T02:59:00.445Z,14.20
2019-02-10T03:01:07.336Z,9.37
2019-02-10T03:03:15.551Z,9.23
2019-02-10T03:05:22.111Z,10.40
2019-02-10T03:07:28.600Z,12.47
2019-02-10T03:09:35.181Z,13.53
2019-02-10T03:11:41.795Z,11.70
2019-02-10T03:13:48.442Z,9.07
2019-02-10T03:15:56.567Z,9.83
2019-02-10T03:18:03.860Z,9.10
2019-02-10T03:20:11.583Z,11.07
2019-02-10T03:22:18.576Z,9.00
2019-02-10T03:24:25.491Z,11.47
2019-02-10T03:26:33.763Z,11.53
2019-02-10T03:28:40.833Z,11.13
2019-02-10T03:30:49.374Z,11.43
2019-02-10T03:32:57.083Z,9.27
2019-02-10T03:35:04.472Z,13.40
2019-02-10T03:37:11.465Z,9.50
2019-02-10T03:39:18.537Z,11.23
2019-02-10T03:41:25.376Z,9.67
2019-02-10T03:43:32.258Z,10.00
2019-02-10T03:45:39.183Z,12.93
2019-02-10T03:47:46.866Z,15.67
2019-02-10T03:49:53.493Z,9.93
2019-02-10T03:52:00.287Z,17.53
2019-02-10T03:54:07.205Z,10.20
2019-02-10T03:56:13.789Z,9.00
2019-02-10T03:58:20.640Z,14.13
2019-02-10T04:00:28.980Z,14.00
2019-02-10T04:02:35.729Z,12.57
2019-02-10T04:04:42.542Z,9.30
2019-02-10T04:06:52.006Z,11.53
2019-02-10T04:08:59.169Z,15.93
2019-02-10T04:11:07.619Z,9.17
2019-02-10T04:13:14.368Z,13.77
2019-02-10T04:15:21.149Z,9.73
2019-02-10T04:17:27.809Z,10.17
2019-02-10T04:19:34.486Z,14.53
2019-02-10T04:21:41.076Z,8.90
2019-02-10T04:23:49.406Z,12.53
2019-02-10T04:25:56.027Z,11.30
2019-02-10T04:28:04.168Z,17.90
2019-02-10T04:30:12.627Z,14.87
2019-02-10T04:32:19.222Z,19.77
2019-02-10T04:34:26.082Z,25.43
2019-02-10T04:36:32.973Z,25.17
2019-02-10T04:38:40.996Z,24.90
2019-02-10T04:40:49.172Z,17.50
2019-02-10T04:42:57.263Z,15.13
2019-02-10T04:45:03.938Z,12.03
2019-02-10T04:47:10.890Z,11.57
2019-02-10T04:49:18.089Z,13.63
2019-02-10T04:51:24.897Z,9.83
2019-02-10T04:53:31.784Z,10.93
2019-02-10T04:55:38.619Z,12.57
2019-02-10T04:57:46.883Z,9.10
2019-02-10T04:59:54.001Z,13.07
2019-02-10T05:02:00.902Z,12.30
2019-02-10T05:04:09.281Z,11.97
2019-02-10T05:06:16.169Z,13.43
2019-02-10T05:08:27.166Z,13.93
2019-02-10T05:10:35.077Z,14.33
2019-02-10T05:12:41.945Z,12.80
2019-02-10T05:14:48.576Z,10.10
2019-02-10T05:16:56.401Z,8.93
2019-02-10T05:19:03.286Z,9.27
2019-02-10T05:21:10.053Z,12.13
2019-02-10T05:23:16.734Z,9.20
2019-02-10T05:25:23.495Z,15.23
2019-02-10T05:27:29.994Z,8.63
2019-02-10T05:29:36.955Z,13.40
2019-02-10T05:31:43.408Z,11.87
2019-02-10T05:34:00.113Z,8.93
2019-02-10T05:36:08.015Z,12.00
2019-02-10T05:38:15.065Z,10.20
2019-02-10T05:40:23.347Z,12.67
2019-02-10T05:42:32.908Z,12.43
2019-02-10T05:44:42.993Z,11.27
2019-02-10T05:46:51.347Z,14.57
2019-02-10T05:48:58.311Z,19.13
2019-02-10T05:51:05.282Z,12.60
2019-02-10T05:53:11.883Z,13.20
2019-02-10T05:55:20.182Z,13.43
2019-02-10T05:57:27.030Z,10.87
2019-02-10T05:59:34.028Z,9.40
2019-02-10T06:02:07.805Z,13.37
2019-02-10T06:04:14.863Z,10.33
2019-02-10T06:06:21.949Z,9.37
2019-02-10T06:08:30.302Z,15.93
2019-02-10T06:10:37.204Z,13.43
2019-02-10T06:12:44.196Z,15.93
2019-02-10T06:14:54.106Z,7.03
2019-02-10T06:17:02.111Z,13.90
2019-02-10T06:19:09.399Z,11.13
2019-02-10T06:21:16.420Z,12.47
2019-02-10T06:23:30.129Z,12.67
2019-02-10T06:25:39.632Z,13.90
2019-02-10T06:27:46.310Z,12.93
2019-02-10T06:29:52.820Z,9.00
2019-02-10T06:32:00.605Z,14.43
2019-02-10T06:34:07.448Z,11.30
2019-02-10T06:36:16.735Z,12.07
2019-02-10T06:38:25.738Z,14.33
2019-02-10T06:40:33.921Z,18.93
2019-02-10T06:42:42.419Z,13.27
2019-02-10T06:44:49.055Z,13.83
2019-02-10T06:46:59.906Z,18.43
2019-02-10T06:49:26.217Z,13.37
2019-02-10T06:51:35.129Z,13.70
2019-02-10T06:53:43.122Z,10.67
2019-02-10T06:55:53.285Z,13.00
2019-02-10T06:58:00.919Z,12.67
2019-02-10T07:00:13.393Z,26.93
2019-02-10T07:02:32.478Z,13.60
2019-02-10T07:04:39.163Z,11.03
2019-02-10T07:06:46.004Z,18.87
2019-02-10T07:08:54.806Z,19.00
2019-02-10T07:11:03.485Z,12.17
2019-02-10T07:13:11.863Z,18.80
2019-02-10T07:15:46.965Z,9.73
2019-02-10T07:17:56.305Z,24.73
2019-02-10T07:20:37.218Z,17.80
2019-02-10T07:22:48.467Z,18.23
2019-02-10T07:25:00.257Z,19.30
2019-02-10T07:27:18.107Z,16.23
2019-02-10T07:30:06.936Z,9.33
2019-02-10T07:32:18.067Z,15.93
2019-02-10T07:34:55.912Z,13.60
2019-02-10T07:37:18.867Z,11.37
2019-02-10T07:40:02.436Z,13.47
2019-02-10T07:42:33.985Z,14.40
2019-02-10T07:45:15.144Z,10.33
2019-02-10T07:47:40.763Z,10.63
2019-02-10T07:50:07.295Z,11.90
2019-02-10T07:52:36.383Z,11.17
2019-02-10T07:55:22.055Z,9.33
2019-02-10T07:57:59.053Z,20.87
2019-02-10T08:00:30.433Z,13.50
2019-02-10T08:02:53.097Z,15.83
2019-02-10T08:05:35.797Z,15.07
2019-02-10T08:08:05.962Z,16.17
2019-02-10T08:10:16.968Z,14.27
2019-02-10T08:13:00.879Z,14.80
2019-02-10T08:15:21.177Z,14.83
2019-02-10T08:17:50.249Z,12.80
2019-02-10T08:20:12.915Z,9.13
2019-02-10T08:22:38.636Z,12.43
2019-02-10T08:25:08.596Z,13.87
2019-02-10T08:27:31.216Z,12.40
2019-02-10T08:29:51.466Z,9.13
2019-02-10T08:32:19.886Z,10.87
2019-02-10T08:35:02.678Z,13.10
2019-02-10T08:37:38.598Z,11.27
2019-02-10T08:40:34.238Z,13.60
2019-02-10T08:42:55.468Z,13.40
2019-02-10T08:45:27.318Z,11.67
2019-02-10T08:47:47.004Z,14.33
2019-02-10T08:50:25.036Z,10.87
2019-02-10T08:52:41.936Z,14.47
2019-02-10T08:54:49.684Z,13.53
2019-02-10T08:56:57.474Z,15.67
2019-02-10T08:59:05.277Z,12.90
2019-02-10T09:01:11.948Z,15.50
2019-02-10T09:03:19.833Z,15.13
2019-02-10T09:05:26.600Z,27.43
2019-02-10T09:07:34.446Z,29.30
2019-02-10T09:09:41.332Z,55.33
2019-02-10T09:11:48.168Z,27.97
2019-02-10T09:13:55.023Z,29.63
2019-02-10T09:16:01.851Z,19.23
2019-02-10T09:18:10.332Z,14.07
2019-02-10T09:20:17.392Z,13.80
2019-02-10T09:22:24.246Z,16.27
2019-02-10T09:24:33.690Z,12.67
2019-02-10T09:26:40.598Z,11.77
2019-02-10T09:28:47.618Z,18.23
2019-02-10T09:30:54.467Z,15.23
2019-02-10T09:33:01.087Z,17.27
2019-02-10T09:35:09.391Z,15.57
2019-02-10T09:37:17.687Z,16.03
2019-02-10T09:39:24.256Z,17.07
2019-02-10T09:41:31.417Z,15.80
2019-02-10T09:43:38.778Z,18.13
2019-02-10T09:45:45.857Z,17.87
2019-02-10T09:47:52.467Z,20.93
2019-02-10T09:49:59.228Z,62.87
2019-02-10T09:52:06.038Z,27.60
2019-02-10T09:54:14.778Z,14.00
2019-02-10T09:56:21.504Z,19.10
2019-02-10T09:58:28.277Z,24.30
2019-02-10T10:00:35.186Z,21.03
2019-02-10T10:02:42.000Z,14.93
2019-02-10T10:04:49.426Z,17.93
2019-02-10T10:06:56.445Z,17.87
2019-02-10T10:09:03.237Z,30.87
2019-02-10T10:11:09.694Z,22.03
2019-02-10T10:13:17.771Z,22.70
2019-02-10T10:15:24.530Z,21.47
2019-02-10T10:17:31.124Z,23.30
2019-02-10T10:19:37.975Z,16.10
2019-02-10T10:21:44.726Z,23.87
2019-02-10T10:23:51.716Z,14.83
2019-02-10T10:25:58.496Z,17.57
2019-02-10T10:28:05.576Z,11.83
2019-02-10T10:30:19.537Z,16.30
2019-02-10T10:32:27.245Z,17.67
2019-02-10T10:34:35.413Z,17.03
2019-02-10T10:36:42.516Z,21.43
2019-02-10T10:38:51.088Z,23.27
2019-02-10T10:40:58.446Z,16.67
2019-02-10T10:43:06.166Z,21.93
2019-02-10T10:45:17.568Z,15.57
2019-02-10T10:47:24.743Z,26.00
2019-02-10T10:49:32.146Z,15.33
2019-02-10T10:51:39.874Z,16.33
2019-02-10T10:53:47.264Z,19.53
2019-02-10T10:55:55.942Z,22.10
2019-02-10T10:58:03.184Z,24.43
2019-02-10T11:00:15.264Z,18.30
2019-02-10T11:02:22.176Z,25.27
2019-02-10T11:04:29.086Z,19.07
2019-02-10T11:06:38.073Z,19.90
2019-02-10T11:08:49.742Z,19.37
2019-02-10T11:10:57.324Z,25.43
2019-02-10T11:13:05.874Z,16.40
2019-02-10T11:15:15.474Z,27.40
2019-02-10T11:17:24.544Z,21.77
2019-02-10T11:19:31.374Z,21.30
2019-02-10T11:21:38.123Z,38.90
2019-02-10T11:23:45.093Z,34.77
2019-02-10T11:25:53.594Z,37.10
2019-02-10T11:28:00.581Z,28.33
2019-02-10T11:30:11.991Z,32.43
2019-02-10T11:32:19.754Z,29.43
2019-02-10T11:34:26.514Z,20.80
2019-02-10T11:36:33.674Z,27.97
2019-02-10T11:38:40.625Z,32.87
2019-02-10T11:40:47.854Z,19.07
2019-02-10T11:42:55.391Z,18.67
2019-02-10T11:45:02.814Z,26.47
2019-02-10T11:47:11.322Z,24.77
2019-02-10T11:49:18.104Z,21.53
2019-02-10T11:51:25.543Z,26.37
2019-02-10T11:53:32.994Z,20.60
2019-02-10T11:55:39.953Z,16.33
2019-02-10T11:57:48.001Z,20.37
2019-02-10T11:59:55.410Z,22.63
2019-02-10T12:02:02.322Z,21.87
2019-02-10T12:04:09.323Z,18.50
2019-02-10T12:06:16.349Z,25.30
2019-02-10T12:08:23.740Z,20.87
2019-02-10T12:10:31.029Z,19.23
2019-02-10T12:12:38.368Z,23.30
2019-02-10T12:14:45.840Z,20.93
2019-02-10T12:16:53.160Z,26.43
2019-02-10T12:19:01.115Z,20.80
2019-02-10T12:21:08.648Z,18.53
2019-02-10T12:23:16.148Z,26.37
2019-02-10T12:25:23.045Z,23.90
2019-02-10T12:27:30.489Z,21.37
2019-02-10T12:29:37.888Z,29.30
2019-02-10T12:31:45.410Z,21.40
2019-02-10T12:33:52.310Z,22.63
2019-02-10T12:35:59.832Z,23.07
2019-02-10T12:38:06.969Z,22.37
2019-02-10T12:40:14.381Z,22.77
2019-02-10T12:42:21.634Z,24.53
2019-02-10T12:44:29.232Z,25.80
2019-02-10T12:46:36.438Z,23.57
2019-02-10T12:48:43.573Z,28.33
2019-02-10T12:50:51.076Z,26.60
2019-02-10T12:52:58.414Z,27.37
2019-02-10T12:55:06.534Z,23.73
2019-02-10T12:57:13.914Z,27.80
2019-02-10T12:59:21.041Z,34.07
2019-02-10T13:01:28.514Z,30.50
2019-02-10T13:03:35.723Z,28.00
2019-02-10T13:05:43.165Z,29.83
2019-02-10T13:07:50.284Z,34.47
2019-02-10T13:09:57.451Z,28.77
2019-02-10T13:12:04.653Z,30.77
2019-02-10T13:14:11.814Z,32.53
2019-02-10T13:16:18.843Z,28.17
2019-02-10T13:18:26.359Z,32.77
2019-02-10T13:20:33.921Z,32.07
2019-02-10T13:22:41.388Z,37.57
2019-02-10T13:24:48.494Z,36.87
2019-02-10T13:26:55.761Z,41.63
2019-02-10T13:29:04.250Z,34.40
2019-02-10T13:31:11.200Z,46.90
2019-02-10T13:33:19.543Z,34.97
2019-02-10T13:35:26.870Z,35.17
2019-02-10T13:37:33.990Z,34.10
2019-02-10T13:39:41.077Z,31.93
2019-02-10T13:41:45.860Z,40.00
2019-02-10T13:43:52.913Z,32.97
2019-02-10T13:46:00.040Z,36.67
2019-02-10T13:48:07.640Z,31.93
2019-02-10T13:50:18.218Z,35.80
2019-02-10T13:52:25.400Z,30.17
2019-02-10T13:54:33.170Z,27.43
2019-02-10T13:56:40.680Z,34.37
2019-02-10T13:58:47.560Z,26.47
2019-02-10T14:00:55.168Z,32.13
2019-02-10T14:03:03.010Z,36.47
2019-02-10T14:05:10.350Z,31.03
2019-02-10T14:07:17.577Z,33.83
2019-02-10T14:09:24.947Z,42.13
2019-02-10T14:11:32.363Z,29.70
2019-02-10T14:13:39.578Z,33.27
2019-02-10T14:15:46.776Z,31.70
2019-02-10T14:17:53.944Z,29.83
2019-02-10T14:20:01.054Z,27.47
2019-02-10T14:22:08.187Z,29.87
2019-02-10T14:24:15.069Z,37.17
2019-02-10T14:26:22.903Z,32.37
2019-02-10T14:28:30.034Z,36.00
2019-02-10T14:30:38.120Z,32.60
2019-02-10T14:32:46.350Z,31.73
2019-02-10T14:34:53.661Z,34.23
2019-02-10T14:37:00.818Z,36.53
2019-02-10T14:39:08.025Z,32.83
2019-02-10T14:41:15.087Z,29.57
2019-02-10T14:43:22.195Z,28.37
2019-02-10T14:45:29.501Z,33.47
2019-02-10T14:47:36.530Z,31.03
2019-02-10T14:49:43.828Z,30.30
2019-02-10T14:51:51.385Z,34.13
2019-02-10T14:53:59.824Z,31.63
2019-02-10T14:56:07.197Z,32.33
2019-02-10T14:58:14.414Z,34.60
2019-02-10T15:00:21.554Z,28.10
2019-02-10T15:02:28.844Z,34.47
2019-02-10T15:04:36.394Z,33.40
2019-02-10T15:06:43.394Z,37.10
2019-02-10T15:08:50.650Z,34.63
2019-02-10T15:10:57.783Z,28.83
2019-02-10T15:13:07.518Z,34.60
2019-02-10T15:15:24.887Z,34.53
2019-02-10T15:17:37.844Z,30.03
2019-02-10T15:19:45.944Z,33.10
2019-02-10T15:21:53.998Z,33.83
2019-02-10T15:24:01.177Z,33.67
2019-02-10T15:26:08.346Z,31.93
2019-02-10T15:28:15.835Z,35.97
2019-02-10T15:30:23.140Z,36.20
2019-02-10T15:32:30.103Z,39.00
2019-02-10T15:34:37.513Z,33.77
2019-02-10T15:36:45.027Z,40.37
2019-02-10T15:38:52.311Z,38.13
2019-02-10T15:40:59.733Z,41.90
2019-02-10T15:43:07.861Z,38.43
2019-02-10T15:45:35.576Z,35.57
2019-02-10T15:47:42.925Z,41.67
2019-02-10T15:49:50.296Z,36.47
2019-02-10T15:51:57.722Z,40.97
2019-02-10T15:54:05.143Z,29.90
2019-02-10T15:56:13.101Z,34.37
2019-02-10T15:58:21.477Z,41.53
2019-02-10T16:00:30.025Z,35.70
2019-02-10T16:02:37.401Z,37.77
2019-02-10T16:04:44.471Z,36.40
2019-02-10T16:06:51.836Z,35.83
2019-02-10T16:08:59.433Z,35.27
2019-02-10T16:11:06.535Z,31.67
2019-02-10T16:13:14.244Z,39.43
2019-02-10T16:15:21.747Z,35.13
2019-02-10T16:17:29.600Z,38.03
2019-02-10T16:19:37.240Z,43.13
2019-02-10T16:21:44.722Z,40.60
2019-02-10T16:23:51.867Z,39.63
2019-02-10T16:25:58.921Z,50.87
2019-02-10T16:28:06.443Z,40.53
2019-02-10T16:30:21.273Z,41.73
2019-02-10T16:32:28.460Z,40.70
2019-02-10T16:34:35.843Z,37.63
2019-02-10T16:36:42.989Z,39.80
2019-02-10T16:38:50.340Z,36.50
2019-02-10T16:40:57.487Z,35.43
2019-02-10T16:43:05.209Z,39.13
2019-02-10T16:45:14.141Z,42.70
2019-02-10T16:47:22.882Z,45.27
2019-02-10T16:51:47.704Z,34.67
2019-02-10T16:53:56.031Z,32.77
2019-02-10T16:56:03.430Z,41.80
2019-02-10T16:58:10.983Z,33.97
2019-02-10T17:00:18.888Z,33.10
2019-02-10T17:02:25.942Z,30.93
2019-02-10T17:04:33.056Z,33.50
2019-02-10T17:06:40.836Z,37.63
2019-02-10T17:08:48.500Z,39.67
2019-02-10T17:10:56.236Z,32.97
2019-02-10T17:13:24.378Z,33.50
2019-02-10T17:15:31.757Z,45.40
2019-02-10T17:17:39.296Z,45.60
2019-02-10T17:19:46.597Z,42.97
2019-02-10T17:21:53.876Z,54.10
2019-02-10T17:24:01.046Z,44.10
2019-02-10T17:26:09.219Z,44.30
2019-02-10T17:28:16.898Z,34.83
2019-02-10T17:30:24.387Z,37.67
2019-02-10T17:32:31.795Z,35.00
2019-02-10T17:34:38.866Z,38.80
2019-02-10T17:36:45.927Z,33.27
2019-02-10T17:38:53.076Z,39.40
2019-02-10T17:41:12.937Z,37.90
2019-02-10T17:43:27.837Z,41.80
2019-02-10T17:45:30.048Z,40.23
2019-02-10T17:47:37.298Z,35.43
2019-02-10T17:49:44.647Z,43.73
2019-02-10T17:51:52.227Z,81.90
2019-02-10T17:53:59.447Z,57.03
2019-02-10T17:56:08.274Z,62.67
2019-02-10T17:58:15.568Z,94.97
2019-02-10T18:00:25.741Z,61.63
2019-02-10T18:02:32.930Z,46.70
2019-02-10T18:04:40.532Z,45.13
2019-02-10T18:06:47.643Z,42.80
2019-02-10T18:08:54.972Z,45.57
2019-02-10T18:11:04.515Z,40.70
2019-02-10T18:13:12.023Z,39.27
2019-02-10T18:15:31.072Z,43.63
2019-02-10T18:17:40.021Z,39.20
2019-02-10T18:19:51.995Z,38.23
2019-02-10T18:22:01.367Z,35.83
2019-02-10T18:24:14.135Z,43.53
2019-02-10T18:26:38.064Z,36.90
2019-02-10T18:28:53.129Z,37.40
2019-02-10T18:31:01.899Z,35.67
2019-02-10T18:33:08.698Z,40.43
2019-02-10T18:35:17.522Z,32.13
2019-02-10T18:37:26.395Z,34.10
2019-02-10T18:39:43.815Z,39.67
2019-02-10T18:42:11.385Z,41.70
2019-02-10T18:44:29.449Z,41.90
2019-02-10T18:46:50.316Z,32.50
2019-02-10T18:49:02.133Z,38.17
2019-02-10T18:51:15.645Z,37.97
2019-02-10T18:53:40.645Z,34.87
2019-02-10T18:55:47.715Z,39.27
2019-02-10T18:58:13.815Z,45.87
2019-02-10T19:00:28.304Z,39.33
2019-02-10T19:02:48.867Z,37.07
2019-02-10T19:05:00.594Z,38.27
2019-02-10T19:07:16.638Z,38.13
2019-02-10T19:09:28.245Z,32.27
2019-02-10T19:11:55.615Z,33.50
2019-02-10T19:14:04.605Z,37.17
2019-02-10T19:16:22.144Z,38.40
2019-02-10T19:18:41.132Z,43.70
2019-02-10T19:20:59.341Z,44.23
2019-02-10T19:23:24.354Z,42.03
2019-02-10T19:25:49.326Z,40.97
2019-02-10T19:27:58.140Z,47.13
2019-02-10T19:30:09.359Z,43.93
2019-02-10T19:32:20.176Z,40.80
2019-02-10T19:34:46.462Z,41.03
2019-02-10T19:37:02.352Z,37.13
2019-02-10T19:39:23.571Z,41.23
2019-02-10T19:41:34.022Z,42.77
2019-02-10T19:43:58.045Z,44.50
2019-02-10T19:46:23.623Z,50.97
2019-02-10T19:48:49.212Z,44.10
2019-02-10T19:50:58.943Z,50.83
2019-02-10T19:53:08.815Z,47.63
2019-02-10T19:55:20.803Z,55.37
2019-02-10T19:57:41.665Z,52.57
2019-02-10T19:59:56.555Z,45.90
2019-02-10T20:02:11.614Z,62.70
2019-02-10T20:04:36.607Z,58.47
2019-02-10T20:06:45.254Z,44.97
2019-02-10T20:08:52.345Z,50.57
2019-02-10T20:11:08.785Z,59.43
2019-02-10T20:13:20.845Z,49.27
2019-02-10T20:15:29.616Z,57.90
2019-02-10T20:17:43.022Z,55.47
2019-02-10T20:20:04.994Z,48.93
2019-02-10T20:22:13.865Z,75.73
2019-02-10T20:24:22.609Z,82.47
2019-02-10T20:26:40.635Z,65.43
2019-02-10T20:28:55.031Z,54.87
2019-02-10T20:31:08.006Z,54.83
2019-02-10T20:33:20.683Z,46.97
2019-02-10T20:35:38.863Z,45.80
2019-02-10T20:37:47.974Z,48.33
2019-02-10T20:39:56.743Z,53.23
2019-02-10T20:42:12.636Z,44.60
2019-02-10T20:44:27.344Z,48.70
2019-02-10T20:46:36.375Z,38.03
2019-02-10T20:48:43.258Z,39.57
2019-02-10T20:50:50.183Z,56.47
2019-02-10T20:52:59.965Z,50.47
2019-02-10T20:55:12.462Z,47.73
2019-02-10T20:57:27.270Z,42.30
2019-02-10T20:59:39.081Z,38.90
2019-02-10T21:01:59.810Z,48.20
2019-02-10T21:04:21.005Z,43.30
2019-02-10T21:06:44.736Z,61.77
2019-02-10T21:08:53.357Z,67.53
2019-02-10T21:11:08.196Z,42.43
2019-02-10T21:13:16.886Z,54.67
2019-02-10T21:15:39.213Z,52.13
2019-02-10T21:18:03.126Z,46.43
2019-02-10T21:20:12.186Z,41.53
2019-02-10T21:22:22.655Z,44.57
2019-02-10T21:24:47.806Z,37.20
2019-02-10T21:27:11.606Z,45.40
2019-02-10T21:29:23.253Z,32.40
2019-02-10T21:31:32.389Z,39.13
2019-02-10T21:33:44.307Z,34.37
2019-02-10T21:36:09.266Z,44.30
2019-02-10T21:38:27.351Z,37.50
2019-02-10T21:40:54.508Z,40.67
2019-02-10T21:43:12.820Z,35.63
2019-02-10T21:45:24.987Z,33.97
2019-02-10T21:47:33.966Z,33.47
2019-02-10T21:49:41.650Z,41.67
2019-02-10T21:51:49.341Z,41.23
2019-02-10T21:53:56.385Z,39.87
2019-02-10T21:56:03.650Z,34.27
2019-02-10T21:58:11.445Z,42.73
2019-02-10T22:00:18.787Z,40.57
2019-02-10T22:02:26.232Z,50.53
2019-02-10T22:04:33.505Z,51.83
2019-02-10T22:06:40.546Z,57.90
2019-02-10T22:08:47.826Z,64.50
2019-02-10T22:10:54.846Z,67.50
2019-02-10T22:13:01.906Z,55.33
2019-02-10T22:15:11.533Z,57.60
2019-02-10T22:17:18.965Z,45.37
2019-02-10T22:19:26.005Z,51.47
2019-02-10T22:21:34.390Z,54.23
2019-02-10T22:23:41.006Z,50.10
2019-02-10T22:25:48.025Z,38.63
2019-02-10T22:27:56.293Z,37.27
2019-02-10T22:30:04.826Z,39.43
2019-02-10T22:32:11.686Z,36.33
2019-02-10T22:34:18.446Z,39.20
2019-02-10T22:36:25.125Z,44.03
2019-02-10T22:38:32.345Z,37.17
2019-02-10T22:40:39.085Z,37.27
2019-02-10T22:42:46.625Z,37.47
2019-02-10T22:44:53.506Z,37.73
2019-02-10T22:47:00.146Z,40.73
2019-02-10T22:49:06.667Z,36.10
2019-02-10T22:51:13.527Z,35.20
2019-02-10T22:53:20.308Z,36.93
2019-02-10T22:55:31.446Z,33.10
2019-02-10T22:57:38.407Z,37.33
2019-02-10T22:59:45.046Z,38.17
2019-02-10T23:01:51.805Z,30.97
2019-02-10T23:03:58.686Z,52.37
2019-02-10T23:06:05.846Z,45.70
2019-02-10T23:08:12.767Z,46.87
2019-02-10T23:10:21.046Z,43.60
2019-02-10T23:12:29.385Z,41.67
2019-02-10T23:14:36.169Z,39.73
2019-02-10T23:16:53.713Z,42.30
2019-02-10T23:19:00.425Z,37.53
2019-02-10T23:21:07.726Z,37.00
2019-02-10T23:23:14.546Z,38.97
2019-02-10T23:25:22.506Z,37.63
2019-02-10T23:27:29.375Z,37.67
2019-02-10T23:29:36.408Z,36.23
2019-02-10T23:31:44.066Z,37.90
2019-02-10T23:33:50.852Z,38.10
2019-02-10T23:35:57.350Z,38.00
2019-02-10T23:38:05.706Z,35.23
2019-02-10T23:40:12.986Z,38.93
2019-02-10T23:42:20.026Z,39.27
2019-02-10T23:44:26.786Z,36.17
2019-02-10T23:46:33.746Z,29.40
2019-02-10T23:48:40.528Z,39.63
2019-02-10T23:50:47.294Z,35.07
2019-02-10T23:52:56.000Z,32.17
2019-02-10T23:55:02.678Z,39.07
2019-02-10T23:57:09.619Z,34.27
2019-02-10T23:59:16.163Z,40.60
